Time;durP1;ratioP1;P1;durP2;ratioP2;P2;SDS_P1;SDS_P2;PMS_P1;PMS_P2;Temp;Humidity;BMP_temperature;BMP_pressure;BME280_temperature;BME280_humidity;BME280_pressure;Samples;Min_cycle;Max_cycle;Signal;HPM_P1;HPM_P2
2021/10/26 00:00:09;;;;;;;11.65;7.78;;;11.60;99.90;;;;;;5010003;28;20061;-72
2021/10/26 00:02:36;;;;;;;16.98;8.80;;;11.60;99.90;;;;;;5009898;28;20539;-72
2021/10/26 00:05:04;;;;;;;13.57;8.73;;;11.60;99.90;;;;;;5012743;28;20510;-72
2021/10/26 00:07:30;;;;;;;12.60;9.43;;;11.50;99.90;;;;;;5013561;28;20112;-72
2021/10/26 00:09:55;;;;;;;12.73;9.15;;;11.50;99.90;;;;;;5014623;28;20032;-72
2021/10/26 00:12:21;;;;;;;14.00;10.07;;;11.50;99.90;;;;;;5010613;28;20029;-72
2021/10/26 00:14:48;;;;;;;12.65;9.10;;;11.40;99.90;;;;;;5015382;28;20509;-72
2021/10/26 00:17:14;;;;;;;14.77;8.88;;;11.40;99.90;;;;;;5015933;28;20018;-71
2021/10/26 00:19:40;;;;;;;12.38;8.55;;;11.40;99.90;;;;;;5026618;28;20115;-71
2021/10/26 00:22:06;;;;;;;16.55;8.93;;;11.40;99.90;;;;;;5015401;28;20058;-72
2021/10/26 00:24:32;;;;;;;16.75;9.25;;;11.40;99.90;;;;;;5012703;28;20030;-72
2021/10/26 00:26:57;;;;;;;13.88;9.82;;;11.30;99.90;;;;;;5009947;28;20021;-71
2021/10/26 00:29:23;;;;;;;13.73;9.45;;;11.30;99.90;;;;;;5016774;28;20025;-72
2021/10/26 00:31:49;;;;;;;16.40;11.10;;;11.30;99.90;;;;;;5012596;28;20501;-72
2021/10/26 00:34:16;;;;;;;15.73;9.77;;;11.30;99.90;;;;;;5013447;28;20037;-72
2021/10/26 00:36:42;;;;;;;20.90;11.95;;;11.20;99.90;;;;;;5016012;28;20029;-72
2021/10/26 00:39:08;;;;;;;17.10;10.57;;;11.20;99.90;;;;;;5012712;28;20072;-72
2021/10/26 00:41:34;;;;;;;16.58;11.15;;;11.30;99.90;;;;;;5003672;28;20037;-72
2021/10/26 00:44:00;;;;;;;19.42;13.35;;;11.20;99.90;;;;;;5025033;28;20033;-72
2021/10/26 00:46:28;;;;;;;20.70;12.73;;;11.20;99.90;;;;;;5005841;28;20026;-71
2021/10/26 00:48:55;;;;;;;17.88;13.10;;;11.20;99.90;;;;;;5013352;28;20033;-72
2021/10/26 00:51:20;;;;;;;22.60;14.48;;;11.20;99.90;;;;;;5009344;28;20058;-72
2021/10/26 00:53:46;;;;;;;19.90;13.13;;;11.20;99.90;;;;;;5014620;28;20057;-72
2021/10/26 00:56:12;;;;;;;21.08;14.48;;;11.20;99.90;;;;;;5012798;28;20073;-72
2021/10/26 00:58:37;;;;;;;20.63;13.27;;;11.20;99.90;;;;;;5007575;28;20030;-72
2021/10/26 01:01:03;;;;;;;19.52;13.93;;;11.20;99.90;;;;;;4999996;28;20040;-72
2021/10/26 01:03:29;;;;;;;21.92;14.85;;;11.20;99.90;;;;;;5013456;28;20037;-72
2021/10/26 01:05:55;;;;;;;20.75;14.60;;;11.20;99.90;;;;;;5017185;28;20088;-72
2021/10/26 01:08:21;;;;;;;20.92;14.85;;;11.10;99.90;;;;;;5008900;28;20026;-72
2021/10/26 01:10:48;;;;;;;21.45;15.05;;;11.20;99.90;;;;;;5014361;28;20026;-72
2021/10/26 01:13:14;;;;;;;20.35;14.18;;;11.20;99.90;;;;;;5015314;28;20026;-71
2021/10/26 01:15:39;;;;;;;22.73;14.45;;;11.10;99.90;;;;;;5015598;28;20111;-71
2021/10/26 01:18:05;;;;;;;20.73;14.27;;;11.20;99.90;;;;;;5013692;28;20732;-72
2021/10/26 01:20:31;;;;;;;18.90;14.57;;;11.20;99.90;;;;;;5015094;28;20121;-72
2021/10/26 01:22:56;;;;;;;21.70;15.27;;;11.20;99.90;;;;;;5017718;28;20036;-72
2021/10/26 01:25:22;;;;;;;22.30;15.15;;;11.20;99.90;;;;;;5008968;28;20526;-71
2021/10/26 01:27:54;;;;;;;20.88;14.75;;;11.20;99.90;;;;;;5016130;28;20053;-72
2021/10/26 01:30:28;;;;;;;20.63;15.35;;;11.20;99.90;;;;;;5014718;28;20060;-71
2021/10/26 01:32:54;;;;;;;20.42;15.13;;;11.10;99.90;;;;;;5013902;28;20538;-73
2021/10/26 01:35:20;;;;;;;20.33;14.10;;;11.10;99.90;;;;;;5018635;28;21556;-72
2021/10/26 01:37:46;;;;;;;19.38;13.98;;;11.20;99.90;;;;;;5016240;28;20084;-72
2021/10/26 01:40:11;;;;;;;20.17;14.52;;;11.20;99.90;;;;;;5012696;28;20033;-72
2021/10/26 01:42:37;;;;;;;22.67;14.63;;;11.20;99.90;;;;;;5017595;28;20050;-72
2021/10/26 01:45:04;;;;;;;18.45;12.95;;;11.20;99.90;;;;;;5019632;28;20038;-72
2021/10/26 01:47:30;;;;;;;20.63;13.70;;;11.20;99.90;;;;;;5012377;28;20034;-72
2021/10/26 01:49:56;;;;;;;24.00;16.60;;;11.20;99.90;;;;;;5016119;28;20481;-72
2021/10/26 01:52:22;;;;;;;18.95;13.50;;;11.20;99.90;;;;;;5017551;28;20105;-72
2021/10/26 01:54:49;;;;;;;17.73;13.25;;;11.20;99.90;;;;;;5017372;28;20030;-72
2021/10/26 01:57:20;;;;;;;20.23;13.48;;;11.20;99.90;;;;;;5019159;28;20065;-71
2021/10/26 01:59:46;;;;;;;22.58;14.27;;;11.20;99.90;;;;;;5017618;28;20037;-72
2021/10/26 02:02:12;;;;;;;20.08;14.23;;;11.20;99.90;;;;;;5019524;28;20057;-72
2021/10/26 02:04:37;;;;;;;19.73;13.63;;;11.20;99.90;;;;;;5018578;28;20412;-72
2021/10/26 02:07:05;;;;;;;17.58;12.40;;;11.20;99.90;;;;;;5021508;28;20033;-72
2021/10/26 02:09:30;;;;;;;17.13;13.00;;;11.20;99.90;;;;;;5012352;28;20093;-71
2021/10/26 02:11:56;;;;;;;18.83;13.68;;;11.20;99.90;;;;;;5020996;28;20128;-72
2021/10/26 02:14:22;;;;;;;21.05;14.15;;;11.20;99.90;;;;;;5018948;28;20034;-71
2021/10/26 02:16:48;;;;;;;20.58;14.07;;;11.20;99.90;;;;;;5019213;28;20081;-72
2021/10/26 02:19:15;;;;;;;24.27;15.20;;;11.20;99.90;;;;;;5013115;28;20045;-71
2021/10/26 02:21:41;;;;;;;21.23;14.00;;;11.20;99.90;;;;;;5015876;28;20041;-72
2021/10/26 02:24:07;;;;;;;22.15;14.52;;;11.20;99.90;;;;;;5015301;28;20040;-72
2021/10/26 02:26:34;;;;;;;27.35;15.02;;;11.20;99.90;;;;;;5010611;28;20026;-72
2021/10/26 02:29:00;;;;;;;25.45;16.00;;;11.20;99.90;;;;;;5014688;28;20030;-72
2021/10/26 02:31:26;;;;;;;25.15;16.70;;;11.10;99.90;;;;;;5017809;28;20036;-72
2021/10/26 02:33:51;;;;;;;25.92;16.65;;;11.10;99.90;;;;;;5016127;28;20026;-72
2021/10/26 02:36:17;;;;;;;25.30;16.58;;;11.10;99.90;;;;;;5016870;28;20525;-72
2021/10/26 02:38:43;;;;;;;25.60;16.30;;;11.10;99.90;;;;;;5015588;28;20051;-72
2021/10/26 02:41:09;;;;;;;24.90;17.10;;;11.10;99.90;;;;;;5018823;28;20491;-72
2021/10/26 02:43:34;;;;;;;25.23;15.90;;;11.10;99.90;;;;;;5011765;28;20029;-72
2021/10/26 02:46:01;;;;;;;27.88;17.15;;;11.10;99.90;;;;;;5019400;28;20574;-72
2021/10/26 02:48:30;;;;;;;29.40;18.20;;;11.00;99.90;;;;;;5012774;28;20034;-72
2021/10/26 02:50:56;;;;;;;31.15;18.55;;;11.00;99.90;;;;;;5013173;28;20028;-71
2021/10/26 02:53:23;;;;;;;27.88;17.92;;;11.00;99.90;;;;;;5018105;28;20036;-72
2021/10/26 02:55:49;;;;;;;27.88;18.38;;;11.00;99.90;;;;;;5016890;28;20029;-72
2021/10/26 02:58:14;;;;;;;31.40;19.50;;;11.00;99.90;;;;;;5014038;28;20017;-72
2021/10/26 03:00:41;;;;;;;30.73;18.48;;;11.00;99.90;;;;;;5008974;28;20033;-72
2021/10/26 03:03:06;;;;;;;30.27;19.05;;;11.00;99.90;;;;;;5015862;28;20022;-72
2021/10/26 03:05:32;;;;;;;30.33;19.17;;;11.00;99.90;;;;;;5010490;28;20025;-72
2021/10/26 03:07:58;;;;;;;28.65;18.23;;;11.00;99.90;;;;;;5015062;28;20034;-72
2021/10/26 03:10:24;;;;;;;32.45;19.95;;;11.00;99.90;;;;;;5017927;28;20487;-72
2021/10/26 03:12:49;;;;;;;37.92;22.25;;;11.00;99.90;;;;;;5015415;28;20032;-72
2021/10/26 03:15:15;;;;;;;29.52;19.80;;;10.90;99.90;;;;;;5016862;28;20042;-72
2021/10/26 03:17:41;;;;;;;32.78;20.52;;;10.80;99.90;;;;;;5010740;28;20030;-72
2021/10/26 03:20:07;;;;;;;32.58;21.90;;;10.80;99.90;;;;;;5014025;28;20026;-72
2021/10/26 03:22:33;;;;;;;36.83;21.02;;;10.80;99.90;;;;;;5004451;28;20033;-72
2021/10/26 03:24:59;;;;;;;35.63;22.00;;;10.80;99.90;;;;;;5013399;28;20031;-72
2021/10/26 03:27:25;;;;;;;36.13;22.50;;;10.80;99.90;;;;;;5013611;28;20041;-72
2021/10/26 03:29:52;;;;;;;33.38;21.67;;;10.80;99.90;;;;;;5008870;28;20060;-72
2021/10/26 03:32:18;;;;;;;35.08;22.27;;;10.70;99.90;;;;;;5011291;28;20030;-73
2021/10/26 03:34:44;;;;;;;34.83;21.17;;;10.70;99.90;;;;;;5010503;28;20420;-72
2021/10/26 03:37:10;;;;;;;36.45;21.65;;;10.70;99.90;;;;;;5020842;28;20022;-72
2021/10/26 03:39:36;;;;;;;30.88;20.83;;;10.60;99.90;;;;;;5012218;28;20487;-72
2021/10/26 03:42:02;;;;;;;35.67;22.38;;;10.70;99.90;;;;;;5012886;28;20113;-72
2021/10/26 03:44:28;;;;;;;32.60;20.45;;;10.70;99.90;;;;;;5008976;28;20026;-72
2021/10/26 03:46:54;;;;;;;36.30;23.40;;;10.60;99.90;;;;;;5013380;28;20029;-72
2021/10/26 03:49:21;;;;;;;32.65;21.40;;;10.60;99.90;;;;;;5014376;28;20061;-72
2021/10/26 03:51:47;;;;;;;33.65;21.38;;;10.60;99.90;;;;;;5012763;28;20102;-72
2021/10/26 03:54:13;;;;;;;35.60;21.70;;;10.60;99.90;;;;;;5016275;28;20036;-72
2021/10/26 03:56:40;;;;;;;33.95;21.85;;;10.60;99.90;;;;;;5012565;28;20025;-72
2021/10/26 03:59:06;;;;;;;35.47;21.42;;;10.60;99.90;;;;;;5009306;28;20037;-72
2021/10/26 04:01:33;;;;;;;34.78;20.75;;;10.50;99.90;;;;;;5014427;28;20033;-71
2021/10/26 04:03:59;;;;;;;34.15;21.83;;;10.50;99.90;;;;;;5015917;28;20038;-71
2021/10/26 04:06:27;;;;;;;32.78;21.00;;;10.50;99.90;;;;;;5017145;28;20030;-72
2021/10/26 04:08:59;;;;;;;33.17;22.00;;;10.50;99.90;;;;;;5013377;28;20026;-72
2021/10/26 04:11:27;;;;;;;33.30;21.67;;;10.50;99.90;;;;;;5011728;28;20088;-72
2021/10/26 04:13:53;;;;;;;41.78;23.30;;;10.50;99.90;;;;;;5015058;28;20535;-72
2021/10/26 04:16:20;;;;;;;33.58;20.92;;;10.40;99.90;;;;;;5015262;28;20092;-73
2021/10/26 04:18:47;;;;;;;33.42;21.38;;;10.50;99.90;;;;;;5010869;28;20384;-71
2021/10/26 04:21:13;;;;;;;31.70;20.80;;;10.50;99.90;;;;;;5014199;28;20022;-72
2021/10/26 04:23:39;;;;;;;31.65;20.83;;;10.60;99.90;;;;;;5014753;28;20033;-72
2021/10/26 04:26:06;;;;;;;32.97;20.63;;;10.60;99.90;;;;;;5007124;28;20088;-72
2021/10/26 04:28:33;;;;;;;32.70;19.63;;;10.70;99.90;;;;;;5014295;28;20084;-71
2021/10/26 04:31:02;;;;;;;31.73;19.67;;;10.70;99.90;;;;;;5006773;28;20025;-72
2021/10/26 04:33:28;;;;;;;35.53;21.60;;;10.70;99.90;;;;;;5014601;28;20061;-71
2021/10/26 04:35:55;;;;;;;32.20;21.00;;;10.80;99.90;;;;;;5012888;28;20034;-72
2021/10/26 04:38:21;;;;;;;34.42;21.67;;;10.80;99.90;;;;;;5013554;28;20653;-72
2021/10/26 04:40:48;;;;;;;32.15;20.95;;;10.80;99.90;;;;;;5013619;28;20056;-72
2021/10/26 04:43:17;;;;;;;33.22;20.85;;;10.80;99.90;;;;;;5009529;28;20089;-72
2021/10/26 04:45:43;;;;;;;35.97;22.50;;;10.90;99.90;;;;;;5013444;28;20929;-72
2021/10/26 04:48:19;;;;;;;31.75;20.42;;;10.90;99.90;;;;;;5012878;28;20034;-72
2021/10/26 04:50:46;;;;;;;40.22;23.30;;;10.90;99.90;;;;;;5009696;28;20518;-72
2021/10/26 04:53:12;;;;;;;34.35;20.13;;;10.90;99.90;;;;;;5013277;28;20065;-72
2021/10/26 04:55:37;;;;;;;36.83;21.10;;;10.90;99.90;;;;;;5007306;28;20107;-71
2021/10/26 04:58:03;;;;;;;35.03;21.60;;;10.90;99.90;;;;;;5013771;28;20026;-71
2021/10/26 05:00:30;;;;;;;36.28;23.10;;;10.90;99.90;;;;;;5006581;28;20061;-71
2021/10/26 05:02:56;;;;;;;35.22;21.48;;;10.90;99.90;;;;;;5009748;28;20030;-71
2021/10/26 05:05:22;;;;;;;40.13;22.23;;;10.90;99.90;;;;;;5010465;28;20030;-71
2021/10/26 05:07:48;;;;;;;37.40;22.05;;;10.90;99.90;;;;;;5015414;28;20563;-72
2021/10/26 05:10:13;;;;;;;34.88;22.25;;;10.90;99.90;;;;;;5016348;28;20034;-72
2021/10/26 05:12:40;;;;;;;33.97;22.50;;;10.90;99.90;;;;;;5037387;28;20022;-72
2021/10/26 05:15:06;;;;;;;35.53;21.00;;;10.90;99.90;;;;;;5018489;28;20038;-72
2021/10/26 05:17:32;;;;;;;35.45;20.95;;;10.90;99.90;;;;;;5016614;28;20116;-72
2021/10/26 05:19:59;;;;;;;36.72;22.40;;;10.90;99.90;;;;;;5017997;28;20029;-71
2021/10/26 05:22:26;;;;;;;35.70;21.83;;;10.90;99.90;;;;;;5016025;28;20112;-72
2021/10/26 05:24:52;;;;;;;35.08;23.02;;;10.90;99.90;;;;;;5017216;28;20104;-71
2021/10/26 05:27:19;;;;;;;33.95;22.25;;;10.90;99.90;;;;;;5017237;28;20464;-71
2021/10/26 05:29:46;;;;;;;37.03;23.40;;;10.90;99.90;;;;;;5012984;28;20029;-72
2021/10/26 05:32:14;;;;;;;35.38;22.85;;;10.90;99.90;;;;;;5021149;28;20034;-71
2021/10/26 05:34:41;;;;;;;34.85;21.70;;;10.90;99.90;;;;;;5014394;28;20029;-71
2021/10/26 05:37:08;;;;;;;37.10;23.25;;;10.90;99.90;;;;;;5016372;28;20038;-71
2021/10/26 05:39:35;;;;;;;36.72;23.52;;;10.90;99.90;;;;;;5018617;28;20025;-72
2021/10/26 05:42:01;;;;;;;35.35;22.73;;;10.90;99.90;;;;;;5021403;28;20117;-71
2021/10/26 05:44:28;;;;;;;38.70;22.75;;;10.90;99.90;;;;;;5018417;28;20121;-71
2021/10/26 05:46:53;;;;;;;36.38;22.05;;;10.90;99.90;;;;;;5019529;28;20043;-71
2021/10/26 05:49:19;;;;;;;35.85;23.42;;;10.90;99.90;;;;;;4994694;28;20468;-71
2021/10/26 05:51:45;;;;;;;34.78;22.13;;;10.90;99.90;;;;;;5018614;28;20034;-71
2021/10/26 05:54:11;;;;;;;36.67;22.60;;;10.90;99.90;;;;;;5019597;28;20060;-72
2021/10/26 05:56:36;;;;;;;38.83;22.75;;;11.00;99.90;;;;;;5017920;28;20040;-71
2021/10/26 05:59:02;;;;;;;40.95;24.42;;;11.00;99.90;;;;;;5016197;28;20026;-71
2021/10/26 06:01:28;;;;;;;39.55;23.45;;;10.90;99.90;;;;;;5014794;28;20116;-72
2021/10/26 06:03:54;;;;;;;38.25;23.55;;;10.90;99.90;;;;;;5015557;28;20041;-76
2021/10/26 06:06:21;;;;;;;36.42;23.42;;;10.90;99.90;;;;;;5020986;28;20033;-71
2021/10/26 06:08:47;;;;;;;39.13;25.10;;;10.90;99.90;;;;;;5018496;28;20033;-72
2021/10/26 06:11:17;;;;;;;35.47;22.92;;;10.90;99.90;;;;;;5014476;28;20104;-71
2021/10/26 06:13:49;;;;;;;38.67;22.92;;;10.90;99.90;;;;;;5018319;28;20018;-69
2021/10/26 06:16:15;;;;;;;41.78;24.55;;;10.90;99.90;;;;;;5011887;28;20034;-72
2021/10/26 06:18:41;;;;;;;35.25;22.65;;;10.90;99.90;;;;;;5014115;28;20061;-71
2021/10/26 06:21:07;;;;;;;42.47;25.65;;;10.90;99.90;;;;;;5019246;28;20057;-71
2021/10/26 06:23:33;;;;;;;41.10;24.10;;;11.00;99.90;;;;;;4979414;28;1167845;-69
2021/10/26 06:26:00;;;;;;;41.25;24.73;;;11.00;99.90;;;;;;5018381;28;20419;-71
2021/10/26 06:28:27;;;;;;;41.58;25.33;;;11.00;99.90;;;;;;5017825;28;20042;-70
2021/10/26 06:30:53;;;;;;;36.25;22.38;;;11.00;99.90;;;;;;5022156;28;20033;-70
2021/10/26 06:33:19;;;;;;;40.97;24.73;;;11.10;99.90;;;;;;5016665;28;20056;-70
2021/10/26 06:35:45;;;;;;;39.17;23.10;;;11.10;99.90;;;;;;5023444;28;20026;-73
2021/10/26 06:38:11;;;;;;;41.72;24.27;;;11.10;99.90;;;;;;5019780;28;20034;-70
2021/10/26 06:40:36;;;;;;;37.90;23.45;;;11.10;99.90;;;;;;5014447;28;20036;-70
2021/10/26 06:43:02;;;;;;;39.13;24.98;;;11.20;99.90;;;;;;5018674;28;20030;-69
2021/10/26 06:45:28;;;;;;;39.78;25.05;;;11.20;99.90;;;;;;5016028;28;20026;-69
2021/10/26 06:47:53;;;;;;;41.90;25.42;;;11.20;99.90;;;;;;5017691;28;20072;-69
2021/10/26 06:50:20;;;;;;;39.95;24.25;;;11.20;99.90;;;;;;5015214;28;20036;-69
2021/10/26 06:52:46;;;;;;;37.95;24.70;;;11.20;99.90;;;;;;5015537;28;20091;-69
2021/10/26 06:55:18;;;;;;;40.22;24.60;;;11.20;99.90;;;;;;5018648;28;20034;-69
2021/10/26 06:57:46;;;;;;;38.70;23.50;;;11.20;99.90;;;;;;5010437;28;20033;-69
2021/10/26 07:00:12;;;;;;;36.78;23.45;;;11.30;99.90;;;;;;5015983;28;20034;-69
2021/10/26 07:02:48;;;;;;;36.53;23.95;;;11.30;99.90;;;;;;5013512;28;20484;-68
2021/10/26 07:05:25;;;;;;;34.72;22.65;;;11.30;99.90;;;;;;5017171;28;20045;-69
2021/10/26 07:07:51;;;;;;;40.28;25.17;;;11.30;99.90;;;;;;5031509;28;20113;-69
2021/10/26 07:10:18;;;;;;;36.38;24.20;;;11.30;99.90;;;;;;5016849;28;20019;-69
2021/10/26 07:12:44;;;;;;;42.53;25.27;;;11.40;99.90;;;;;;5016954;28;20018;-69
2021/10/26 07:15:12;;;;;;;42.90;26.63;;;11.30;99.90;;;;;;5019375;28;20492;-69
2021/10/26 07:17:39;;;;;;;42.35;25.65;;;11.30;99.90;;;;;;5007178;28;20650;-69
2021/10/26 07:20:10;;;;;;;37.97;23.98;;;11.30;99.90;;;;;;5014629;28;20395;-69
2021/10/26 07:22:37;;;;;;;46.42;26.00;;;11.40;99.90;;;;;;5016352;28;20557;-69
2021/10/26 07:25:08;;;;;;;43.78;25.02;;;11.40;99.90;;;;;;5017170;28;20388;-69
2021/10/26 07:27:34;;;;;;;41.33;25.17;;;11.30;99.90;;;;;;5015614;28;20776;-69
2021/10/26 07:30:00;;;;;;;37.92;24.08;;;11.40;99.90;;;;;;5009692;28;20034;-70
2021/10/26 07:32:26;;;;;;;44.83;26.02;;;11.40;99.90;;;;;;5016992;28;20045;-69
2021/10/26 07:34:52;;;;;;;40.67;25.65;;;11.40;99.90;;;;;;5011034;28;20091;-71
2021/10/26 07:37:42;;;;;;;42.80;24.17;;;11.50;99.90;;;;;;5019592;28;20423;-73
2021/10/26 07:40:05;;;;;;;39.95;24.23;;;11.50;99.90;;;;;;5012410;28;20046;-73
2021/10/26 07:42:31;;;;;;;36.10;23.90;;;11.50;99.90;;;;;;5015156;28;20107;-73
2021/10/26 07:44:56;;;;;;;36.85;24.00;;;11.50;99.90;;;;;;5008695;28;20026;-73
2021/10/26 07:47:23;;;;;;;35.95;24.30;;;11.50;99.90;;;;;;5016120;28;20087;-72
2021/10/26 07:49:50;;;;;;;38.03;24.42;;;11.50;99.90;;;;;;5017823;28;20030;-73
2021/10/26 07:52:18;;;;;;;40.35;25.45;;;11.60;99.90;;;;;;5009884;28;20036;-73
2021/10/26 07:54:50;;;;;;;40.63;25.80;;;11.60;99.90;;;;;;5016614;28;20210;-73
2021/10/26 07:57:17;;;;;;;38.47;24.00;;;11.60;99.90;;;;;;5008816;28;20030;-72
2021/10/26 07:59:43;;;;;;;40.58;25.98;;;11.60;99.90;;;;;;5015462;28;20026;-73
2021/10/26 08:02:10;;;;;;;33.40;21.92;;;11.60;99.90;;;;;;5019558;28;20079;-73
2021/10/26 08:04:38;;;;;;;32.38;22.20;;;11.70;99.90;;;;;;5014691;28;20048;-73
2021/10/26 08:07:05;;;;;;;31.50;21.65;;;11.70;99.90;;;;;;5018256;28;20483;-73
2021/10/26 08:09:31;;;;;;;38.15;23.20;;;11.70;99.90;;;;;;5018524;28;20104;-73
2021/10/26 08:11:57;;;;;;;34.00;21.40;;;11.80;99.90;;;;;;5008515;28;20026;-73
2021/10/26 08:14:22;;;;;;;34.00;23.08;;;11.80;99.90;;;;;;5019749;28;20034;-72
2021/10/26 08:16:48;;;;;;;35.50;21.75;;;11.80;99.90;;;;;;5011097;28;20392;-72
2021/10/26 08:19:14;;;;;;;36.28;21.63;;;11.80;99.90;;;;;;5014153;28;20036;-73
2021/10/26 08:21:40;;;;;;;39.38;22.48;;;11.90;99.90;;;;;;5016450;28;20038;-72
2021/10/26 08:24:06;;;;;;;35.45;20.85;;;11.80;99.90;;;;;;5019134;28;20052;-73
2021/10/26 08:26:39;;;;;;;30.27;20.13;;;11.90;99.90;;;;;;5018447;28;20365;-73
2021/10/26 08:29:18;;;;;;;33.22;20.00;;;11.90;99.90;;;;;;5014796;28;20128;-73
2021/10/26 08:36:39;;;;;;;35.75;21.60;;;12.10;99.90;;;;;;5016647;28;20450;-73
2021/10/26 08:39:05;;;;;;;38.20;22.50;;;12.10;99.90;;;;;;5014553;28;20257;-73
2021/10/26 08:41:33;;;;;;;34.63;22.17;;;12.10;99.90;;;;;;5018345;28;20037;-73
2021/10/26 08:43:59;;;;;;;33.47;19.88;;;12.20;99.90;;;;;;5019186;28;20068;-73
2021/10/26 08:46:26;;;;;;;36.42;21.15;;;12.20;99.90;;;;;;5019161;28;20141;-73
2021/10/26 08:48:53;;;;;;;27.35;18.10;;;12.20;99.90;;;;;;5016289;28;20026;-73
2021/10/26 08:51:24;;;;;;;36.25;21.65;;;12.30;99.90;;;;;;5015871;28;20040;-73
2021/10/26 08:53:53;;;;;;;26.42;19.20;;;12.30;99.90;;;;;;5017672;28;20511;-72
2021/10/26 08:56:21;;;;;;;28.52;20.00;;;12.30;99.90;;;;;;5017885;28;20395;-73
2021/10/26 08:58:47;;;;;;;36.70;20.75;;;12.30;99.90;;;;;;5018133;28;20021;-73
2021/10/26 09:01:12;;;;;;;31.52;20.85;;;12.30;99.90;;;;;;5018013;28;20034;-73
2021/10/26 09:03:39;;;;;;;28.92;19.70;;;12.30;99.90;;;;;;5017955;28;20038;-73
2021/10/26 09:06:07;;;;;;;26.90;18.52;;;12.30;99.90;;;;;;5019322;28;20617;-73
2021/10/26 09:08:35;;;;;;;30.48;19.25;;;12.30;99.90;;;;;;5015771;28;20029;-73
2021/10/26 09:19:12;;;;;;;30.35;19.30;;;12.40;99.90;;;;;;5011435;28;20105;-73
2021/10/26 09:21:39;;;;;;;31.50;19.05;;;12.50;99.90;;;;;;5031089;28;20079;-73
2021/10/26 09:24:08;;;;;;;29.55;19.35;;;12.50;99.90;;;;;;5013344;28;20561;-73
2021/10/26 09:27:00;;;;;;;26.40;16.83;;;12.60;99.90;;;;;;5008061;28;20034;-73
2021/10/26 09:29:42;;;;;;;29.42;17.63;;;12.70;99.90;;;;;;5015088;28;20034;-72
2021/10/26 09:32:21;;;;;;;25.35;16.00;;;12.80;99.90;;;;;;5018875;28;20394;-73
2021/10/26 09:34:50;;;;;;;23.65;14.65;;;12.90;99.90;;;;;;5017568;28;20034;-73
2021/10/26 09:37:17;;;;;;;24.30;15.25;;;12.90;99.90;;;;;;5017671;28;20100;-73
2021/10/26 09:39:55;;;;;;;22.92;15.45;;;13.00;99.90;;;;;;5017621;28;20049;-73
2021/10/26 09:42:22;;;;;;;24.48;15.30;;;12.90;99.90;;;;;;5016814;28;20034;-73
2021/10/26 09:44:52;;;;;;;22.85;15.05;;;12.90;99.90;;;;;;5016316;28;20042;-75
2021/10/26 09:47:24;;;;;;;23.85;15.60;;;12.90;99.90;;;;;;5015010;28;20410;-73
2021/10/26 09:50:03;;;;;;;23.17;15.38;;;13.00;99.90;;;;;;5012388;28;20034;-73
2021/10/26 09:52:32;;;;;;;22.35;15.63;;;13.00;99.90;;;;;;5017521;28;20034;-74
2021/10/26 09:55:15;;;;;;;23.58;15.10;;;13.00;99.90;;;;;;5020765;28;20400;-73
2021/10/26 09:57:53;;;;;;;27.08;15.27;;;13.00;99.90;;;;;;5019360;28;20101;-73
2021/10/26 10:00:26;;;;;;;27.45;15.85;;;12.90;99.90;;;;;;5009637;28;20440;-73
2021/10/26 10:03:07;;;;;;;23.85;14.68;;;12.90;99.90;;;;;;5011641;28;20057;-73
2021/10/26 10:05:41;;;;;;;26.77;14.48;;;12.80;99.90;;;;;;5018169;28;20082;-74
2021/10/26 10:08:35;;;;;;;23.20;14.55;;;12.80;99.90;;;;;;5018066;28;20056;-72
2021/10/26 10:11:07;;;;;;;24.67;14.73;;;12.80;99.90;;;;;;5018317;28;20033;-73
2021/10/26 10:13:44;;;;;;;21.52;13.50;;;12.80;99.90;;;;;;5038618;28;20029;-73
2021/10/26 10:16:18;;;;;;;22.23;13.82;;;12.90;99.90;;;;;;5015747;28;20472;-73
2021/10/26 10:18:45;;;;;;;20.05;13.30;;;13.00;99.90;;;;;;5011536;28;20053;-74
2021/10/26 10:21:16;;;;;;;20.42;14.13;;;13.10;99.90;;;;;;5019634;28;20026;-73
2021/10/26 10:23:42;;;;;;;22.20;14.93;;;13.20;99.90;;;;;;5014251;28;20044;-74
2021/10/26 10:26:11;;;;;;;23.05;15.00;;;13.40;99.90;;;;;;5021759;28;20105;-73
2021/10/26 10:28:42;;;;;;;24.13;15.00;;;13.40;99.90;;;;;;5018605;28;20412;-73
2021/10/26 10:31:08;;;;;;;22.38;13.52;;;13.50;99.90;;;;;;5019942;28;20030;-73
2021/10/26 10:33:34;;;;;;;18.88;12.95;;;13.70;99.90;;;;;;5023091;28;20029;-73
2021/10/26 10:36:00;;;;;;;19.35;12.77;;;13.60;99.90;;;;;;5016285;28;20057;-73
2021/10/26 10:38:34;;;;;;;19.27;12.70;;;13.60;99.90;;;;;;5020796;28;20065;-73
2021/10/26 10:41:19;;;;;;;20.77;11.18;;;13.60;99.90;;;;;;4994436;28;20480;-72
2021/10/26 10:43:44;;;;;;;16.23;9.77;;;13.80;99.90;;;;;;5014623;28;20041;-73
2021/10/26 10:46:36;;;;;;;14.13;9.30;;;13.90;99.90;;;;;;5004078;28;20029;-73
2021/10/26 10:49:34;;;;;;;17.08;9.45;;;14.00;99.90;;;;;;5010904;28;20120;-73
2021/10/26 10:52:04;;;;;;;14.60;9.23;;;14.30;99.90;;;;;;4987435;28;20057;-75
2021/10/26 10:54:38;;;;;;;13.32;7.95;;;14.30;99.90;;;;;;5016792;28;20033;-73
2021/10/26 10:57:19;;;;;;;17.17;9.85;;;14.40;99.90;;;;;;5019733;28;20388;-73
2021/10/26 10:59:49;;;;;;;11.25;7.55;;;14.80;99.90;;;;;;5015781;28;20549;-73
2021/10/26 11:02:46;;;;;;;10.18;7.05;;;15.40;99.90;;;;;;5018739;28;20030;-73
2021/10/26 11:08:04;;;;;;;13.05;7.78;;;16.30;97.00;;;;;;5009299;28;20065;-73
2021/10/26 11:10:48;;;;;;;14.88;9.05;;;15.90;97.60;;;;;;5016609;28;20033;-72
2021/10/26 11:13:22;;;;;;;16.88;9.68;;;15.40;97.10;;;;;;5016034;28;20030;-74
2021/10/26 11:15:50;;;;;;;14.15;8.93;;;15.00;98.20;;;;;;5014816;28;20104;-72
2021/10/26 11:18:41;;;;;;;13.45;8.23;;;14.70;99.00;;;;;;5021908;28;20604;-73
2021/10/26 11:21:27;;;;;;;15.80;9.20;;;14.50;99.90;;;;;;5018447;28;20101;-73
2021/10/26 11:23:59;;;;;;;12.77;8.63;;;14.50;99.90;;;;;;5021795;28;20127;-73
2021/10/26 11:26:39;;;;;;;14.15;9.90;;;14.70;99.90;;;;;;5012327;28;20085;-73
2021/10/26 11:29:08;;;;;;;14.35;9.65;;;14.80;99.80;;;;;;5013234;28;20030;-73
2021/10/26 11:31:51;;;;;;;15.90;11.20;;;14.70;99.80;;;;;;5025147;28;20052;-73
2021/10/26 11:34:19;;;;;;;15.70;10.82;;;14.70;99.10;;;;;;5017356;28;20030;-73
2021/10/26 11:36:45;;;;;;;17.75;11.23;;;14.50;99.70;;;;;;5018641;28;20025;-73
2021/10/26 11:39:14;;;;;;;17.45;11.50;;;14.50;99.90;;;;;;5020553;28;20044;-72
2021/10/26 11:41:43;;;;;;;22.38;12.93;;;14.60;99.90;;;;;;5010573;28;20084;-74
2021/10/26 11:44:14;;;;;;;19.23;12.05;;;14.60;99.00;;;;;;5019431;28;20127;-74
2021/10/26 11:46:45;;;;;;;21.08;12.65;;;14.60;99.40;;;;;;5003262;28;20037;-73
2021/10/26 11:49:23;;;;;;;16.27;10.60;;;14.60;99.30;;;;;;5016227;28;20034;-73
2021/10/26 11:51:57;;;;;;;16.40;10.77;;;14.70;99.10;;;;;;5016117;28;20485;-73
2021/10/26 11:54:39;;;;;;;15.30;10.27;;;14.60;98.10;;;;;;5015085;28;20051;-73
2021/10/26 11:57:05;;;;;;;16.27;10.60;;;14.60;98.90;;;;;;5015276;28;20022;-72
2021/10/26 11:59:37;;;;;;;14.48;9.73;;;14.50;98.50;;;;;;5012452;28;20108;-74
2021/10/26 12:02:04;;;;;;;13.35;9.93;;;14.40;98.90;;;;;;5021769;28;20071;-72
2021/10/26 12:04:35;;;;;;;12.30;8.50;;;14.40;99.30;;;;;;5015900;28;20048;-72
2021/10/26 12:07:08;;;;;;;11.55;7.55;;;14.40;99.80;;;;;;5014408;28;20057;-73
2021/10/26 12:09:45;;;;;;;14.32;9.35;;;14.50;99.80;;;;;;5017601;28;20033;-74
2021/10/26 12:12:31;;;;;;;19.38;10.40;;;14.60;99.30;;;;;;5026792;28;20061;-74
2021/10/26 12:14:59;;;;;;;13.10;8.85;;;14.60;98.60;;;;;;5018383;28;20056;-74
2021/10/26 12:17:30;;;;;;;13.73;8.48;;;14.70;99.00;;;;;;5011110;28;20048;-74
2021/10/26 12:20:21;;;;;;;19.05;12.10;;;14.80;99.40;;;;;;5019115;28;20506;-74
2021/10/26 12:22:55;;;;;;;14.68;10.88;;;14.80;98.20;;;;;;5013450;28;20041;-72
2021/10/26 12:25:27;;;;;;;20.85;13.43;;;14.70;98.80;;;;;;5015895;28;20022;-73
2021/10/26 12:27:54;;;;;;;18.52;13.20;;;14.70;98.40;;;;;;5012263;28;20026;-73
2021/10/26 12:30:39;;;;;;;17.20;12.10;;;14.60;98.60;;;;;;5011199;28;20077;-73
2021/10/26 12:33:18;;;;;;;12.63;9.68;;;14.50;98.90;;;;;;5017106;28;20025;-75
2021/10/26 12:35:51;;;;;;;14.77;10.25;;;14.50;99.40;;;;;;5011302;28;20037;-74
2021/10/26 12:38:17;;;;;;;12.50;9.75;;;14.50;99.60;;;;;;5013913;28;20022;-74
2021/10/26 12:40:48;;;;;;;15.05;10.32;;;14.60;99.90;;;;;;5013691;28;20026;-74
2021/10/26 12:43:21;;;;;;;;;;;14.60;99.80;;;;;;5000455;28;20068;-73
2021/10/26 12:45:48;;;;;;;15.43;11.00;;;14.60;99.70;;;;;;5014423;28;19905;-74
2021/10/26 12:48:13;;;;;;;13.88;10.05;;;14.60;99.30;;;;;;5011367;28;20052;-73
2021/10/26 12:50:59;;;;;;;19.20;11.18;;;14.60;99.50;;;;;;5013639;28;20520;-73